Pagina principale
METAR-TAF:

METAR-TAF

Aeroporti :

Topeka, Kansas, Stati Uniti

latitudine: 38-56-29N, longitudine: 095-39-02W, altezza: 329 m

Osservazione

Il bollettino è stato emesso 37 minuti fa, alle 04:53 UTC
Vento calmo
Temperature 19°C
Umidità 94%
Pressione 1018 hPa
Visibilità: 16.1 km
Cielo sereno

METAR: KFOE 230453Z AUTO 00000KT 10SM CLR 19/18 A3005 RMK AO2 SLP167 T01940178

Ora: 00:30 (05:30 UTC)

Previsione

Il bollettino è stato emesso 6 ore e 8 minuti fa, alle 23:22 UTC
Previsione valida dal 23 alle 00 UTC al 23 alle 24 UTC
Vento 6 kt da est/sud-est
Visibilità: 10 km
Nubi sparse ad un'altezza di 4000 ft
Nubi sparse ad un'altezza di 20000 ft

TAF: KFOE 222322Z 2300/2324 11006KT P6SM SCT040 SCT200

Osservazioni e previsioni meteorologiche di più di 4000 aeroporti (messaggi METAR e TAF).

Le stazioni disponibili sono rappresentate dai dischi gialli e rossi sulla carta.

Puntare il mouse per vedere il nome della stazione.

Clicca sopra per visualizzare le osservazioni e previsioni meteorologiche.

Per cambiare la mappa : fare clic sui pulsanti verdi con una croce nera per ingrandire, il pulsante verde con un trattino per diminuire, o sulla freccia verde per le mappe adiacenti.


METAR-TAF: